Time;durP1;ratioP1;P1;durP2;ratioP2;P2;SDS_P1;SDS_P2;PMS_P1;PMS_P2;Temp;Humidity;BMP_temperature;BMP_pressure;BME280_temperature;BME280_humidity;BME280_pressure;Samples;Min_cycle;Max_cycle;Signal;HPM_P1;HPM_P2
2023/05/15 00:02:17;;;;;;;2.53;1.83;;;;;;;;;;5042590;28;20035;-83
2023/05/15 00:04:42;;;;;;;2.15;1.90;;;;;;;;;;5093641;28;20429;-83
2023/05/15 00:07:08;;;;;;;5.38;2.45;;;;;;;;;;5058723;28;20032;-83
2023/05/15 00:09:33;;;;;;;3.22;2.10;;;;;;;;;;5075333;28;20040;-83
2023/05/15 00:11:59;;;;;;;1.90;1.80;;;;;;;;;;5075449;28;20024;-83
2023/05/15 00:14:25;;;;;;;3.55;2.05;;;;;;;;;;5075297;28;20042;-83
2023/05/15 00:16:50;;;;;;;2.50;2.10;;;;;;;;;;5058705;28;20127;-83
2023/05/15 00:19:16;;;;;;;2.25;2.03;;;;;;;;;;5075151;28;20139;-83
2023/05/15 00:21:41;;;;;;;2.60;1.80;;;;;;;;;;5058502;28;20024;-83
2023/05/15 00:24:07;;;;;;;2.13;1.92;;;;;;;;;;5093339;28;20036;-82
2023/05/15 00:26:32;;;;;;;2.50;2.00;;;;;;;;;;5041849;28;20024;-82
2023/05/15 00:28:57;;;;;;;4.75;2.30;;;;;;;;;;5058093;28;20024;-82
2023/05/15 00:31:23;;;;;;;3.10;2.05;;;;;;;;;;5075287;28;20212;-83
2023/05/15 00:33:48;;;;;;;1.98;1.75;;;;;;;;;;5093137;28;20028;-83
2023/05/15 00:36:14;;;;;;;2.00;1.80;;;;;;;;;;5093143;28;20486;-83
2023/05/15 00:38:39;;;;;;;2.20;2.00;;;;;;;;;;5074942;28;20043;-82
2023/05/15 00:41:06;;;;;;;2.08;1.85;;;;;;;;;;5061536;28;20024;-82
2023/05/15 00:43:31;;;;;;;2.20;1.98;;;;;;;;;;5079164;28;20097;-83
2023/05/15 00:45:58;;;;;;;2.00;1.90;;;;;;;;;;5078952;28;20481;-83
2023/05/15 00:48:24;;;;;;;2.28;2.00;;;;;;;;;;5078716;28;20467;-83
2023/05/15 00:50:53;;;;;;;2.63;2.10;;;;;;;;;;5078935;28;20107;-84
2023/05/15 00:53:18;;;;;;;3.15;2.05;;;;;;;;;;5062827;28;20032;-83
2023/05/15 00:55:45;;;;;;;2.55;2.10;;;;;;;;;;5078769;28;20046;-83
2023/05/15 00:58:13;;;;;;;2.83;2.10;;;;;;;;;;5062307;28;20028;-83
2023/05/15 01:00:39;;;;;;;2.13;1.95;;;;;;;;;;5078960;28;20020;-82
2023/05/15 01:03:04;;;;;;;2.40;2.08;;;;;;;;;;5079417;28;20039;-83
2023/05/15 01:05:30;;;;;;;1.90;1.80;;;;;;;;;;5078635;28;20478;-83
2023/05/15 01:08:03;;;;;;;2.28;1.90;;;;;;;;;;5061820;28;20078;-82
2023/05/15 01:10:28;;;;;;;2.10;1.90;;;;;;;;;;5096646;28;20020;-83
2023/05/15 01:12:54;;;;;;;3.58;2.10;;;;;;;;;;5062204;28;20028;-83
2023/05/15 01:15:20;;;;;;;3.05;1.83;;;;;;;;;;5061805;28;20046;-83
2023/05/15 01:17:45;;;;;;;3.30;1.85;;;;;;;;;;5062602;28;20031;-82
2023/05/15 01:20:12;;;;;;;2.03;1.77;;;;;;;;;;5044925;28;20063;-83
2023/05/15 01:22:46;;;;;;;2.85;2.10;;;;;;;;;;5078547;28;20448;-83
2023/05/15 01:25:44;;;;;;;4.43;2.22;;;;;;;;;;5078411;28;20383;-84
2023/05/15 01:28:14;;;;;;;4.80;2.17;;;;;;;;;;5024382;28;20057;-83
2023/05/15 01:30:41;;;;;;;3.20;2.10;;;;;;;;;;5061568;28;20115;-83
2023/05/15 01:33:29;;;;;;;2.00;1.80;;;;;;;;;;5078182;28;20023;-82
2023/05/15 01:36:07;;;;;;;2.20;2.00;;;;;;;;;;5078075;28;20023;-83
2023/05/15 01:38:37;;;;;;;2.63;1.90;;;;;;;;;;5077768;28;20081;-83
2023/05/15 01:41:12;;;;;;;2.08;1.88;;;;;;;;;;5078058;28;20104;-83
2023/05/15 01:43:39;;;;;;;2.00;1.80;;;;;;;;;;5061222;28;20028;-83
2023/05/15 01:46:05;;;;;;;2.60;2.20;;;;;;;;;;5078236;28;20544;-83
2023/05/15 01:48:32;;;;;;;3.63;2.13;;;;;;;;;;5061132;28;20405;-83
2023/05/15 01:51:02;;;;;;;2.95;2.00;;;;;;;;;;5077671;28;20030;-83
2023/05/15 01:53:30;;;;;;;2.40;2.20;;;;;;;;;;5061189;28;20032;-83
2023/05/15 01:55:56;;;;;;;2.97;1.98;;;;;;;;;;5060959;28;20024;-83
2023/05/15 01:58:22;;;;;;;2.05;1.85;;;;;;;;;;5095818;28;20028;-83
2023/05/15 02:00:48;;;;;;;2.17;2.00;;;;;;;;;;5061124;28;20024;-83
2023/05/15 02:03:14;;;;;;;2.50;1.90;;;;;;;;;;5061489;28;20024;-83
2023/05/15 02:05:40;;;;;;;2.25;2.05;;;;;;;;;;5077561;28;20097;-83
2023/05/15 02:08:06;;;;;;;2.78;2.05;;;;;;;;;;5060525;28;20475;-83
2023/05/15 02:10:32;;;;;;;2.20;2.00;;;;;;;;;;5060655;28;20081;-84
2023/05/15 02:12:58;;;;;;;2.45;1.92;;;;;;;;;;5078017;28;20020;-83
2023/05/15 02:15:24;;;;;;;3.53;2.15;;;;;;;;;;5057148;28;20032;-83
2023/05/15 02:17:49;;;;;;;2.20;2.00;;;;;;;;;;5057319;28;20039;-83
2023/05/15 02:20:15;;;;;;;2.72;2.30;;;;;;;;;;5076629;28;20052;-82
2023/05/15 02:22:40;;;;;;;4.57;2.00;;;;;;;;;;5083310;28;20114;-82
2023/05/15 02:25:06;;;;;;;3.88;2.10;;;;;;;;;;5060047;28;20054;-83
2023/05/15 02:27:50;;;;;;;2.00;1.90;;;;;;;;;;5061374;28;20029;-83
2023/05/15 02:30:34;;;;;;;3.05;2.00;;;;;;;;;;5058747;28;20449;-82
2023/05/15 02:33:24;;;;;;;2.17;1.98;;;;;;;;;;5058697;28;20025;-82
2023/05/15 02:35:58;;;;;;;3.85;2.35;;;;;;;;;;5058221;28;20550;-82
2023/05/15 02:38:28;;;;;;;3.17;2.00;;;;;;;;;;5050620;28;20032;-83
2023/05/15 02:40:54;;;;;;;2.78;1.90;;;;;;;;;;5072312;28;20024;-83
2023/05/15 02:43:20;;;;;;;2.30;2.10;;;;;;;;;;5051395;28;20032;-83
2023/05/15 02:45:46;;;;;;;2.50;2.20;;;;;;;;;;5066112;28;20058;-83
2023/05/15 02:48:12;;;;;;;3.13;2.40;;;;;;;;;;5058553;28;20024;-83
2023/05/15 02:50:38;;;;;;;2.03;1.88;;;;;;;;;;5041217;28;20040;-83
2023/05/15 02:53:04;;;;;;;2.92;2.15;;;;;;;;;;5075850;28;20028;-83
2023/05/15 02:55:30;;;;;;;2.55;2.10;;;;;;;;;;5075721;28;20028;-83
2023/05/15 02:57:56;;;;;;;2.58;2.30;;;;;;;;;;5057547;28;20027;-83
2023/05/15 03:00:22;;;;;;;3.00;2.35;;;;;;;;;;5057350;28;20036;-83
2023/05/15 03:02:47;;;;;;;2.45;2.25;;;;;;;;;;5075071;28;20029;-83
2023/05/15 03:05:13;;;;;;;2.50;2.30;;;;;;;;;;5057502;28;20473;-83
2023/05/15 03:07:40;;;;;;;2.30;2.10;;;;;;;;;;5075363;28;20024;-83
2023/05/15 03:10:06;;;;;;;2.63;2.25;;;;;;;;;;5074500;28;20116;-83
2023/05/15 03:12:31;;;;;;;2.58;2.38;;;;;;;;;;5056779;28;20032;-84
2023/05/15 03:14:57;;;;;;;4.97;2.47;;;;;;;;;;5074953;28;20036;-84
2023/05/15 03:17:22;;;;;;;2.67;2.33;;;;;;;;;;5074666;28;20032;-83
2023/05/15 03:19:47;;;;;;;3.00;2.40;;;;;;;;;;5056620;28;20051;-83
2023/05/15 03:22:13;;;;;;;6.45;2.50;;;;;;;;;;5074411;28;20055;-83
2023/05/15 03:24:38;;;;;;;2.63;2.28;;;;;;;;;;5039920;28;20029;-83
2023/05/15 03:27:04;;;;;;;3.05;2.33;;;;;;;;;;5057631;28;20038;-83
2023/05/15 03:29:29;;;;;;;2.70;2.50;;;;;;;;;;5081182;28;20032;-83
2023/05/15 03:31:55;;;;;;;3.20;2.55;;;;;;;;;;5064783;28;20121;-83
2023/05/15 03:34:20;;;;;;;2.90;2.47;;;;;;;;;;5049536;28;20043;-83
2023/05/15 03:36:46;;;;;;;3.40;2.38;;;;;;;;;;5047422;28;20036;-82
2023/05/15 03:39:11;;;;;;;3.88;2.50;;;;;;;;;;5062943;28;20056;-82
2023/05/15 03:41:36;;;;;;;2.80;2.30;;;;;;;;;;5050369;28;20024;-82
2023/05/15 03:44:02;;;;;;;4.30;2.40;;;;;;;;;;5088994;28;20059;-83
2023/05/15 03:46:27;;;;;;;3.28;2.45;;;;;;;;;;5094172;28;20025;-83
2023/05/15 03:48:53;;;;;;;4.45;2.50;;;;;;;;;;5073736;28;20032;-83
2023/05/15 03:51:19;;;;;;;2.63;2.33;;;;;;;;;;5063663;28;20111;-83
2023/05/15 03:53:44;;;;;;;3.78;2.50;;;;;;;;;;5062422;28;20436;-83
2023/05/15 03:56:10;;;;;;;3.33;2.30;;;;;;;;;;5080437;28;20118;-84
2023/05/15 03:58:35;;;;;;;3.03;2.35;;;;;;;;;;5078450;28;20028;-83
2023/05/15 04:01:01;;;;;;;2.20;2.10;;;;;;;;;;5057742;28;20468;-83
2023/05/15 04:03:26;;;;;;;3.17;2.35;;;;;;;;;;5058646;28;20040;-83
2023/05/15 04:05:51;;;;;;;3.08;2.60;;;;;;;;;;5042035;28;20036;-83
2023/05/15 04:08:17;;;;;;;2.55;2.20;;;;;;;;;;5041191;28;20032;-82
2023/05/15 04:10:42;;;;;;;3.08;2.42;;;;;;;;;;5039786;28;20163;-84
2023/05/15 04:13:08;;;;;;;4.03;2.70;;;;;;;;;;5039128;28;20475;-83
2023/05/15 04:15:34;;;;;;;5.63;2.63;;;;;;;;;;5054779;28;20044;-80
2023/05/15 04:17:59;;;;;;;6.05;3.10;;;;;;;;;;5055500;28;20033;-80
2023/05/15 04:20:24;;;;;;;5.22;3.15;;;;;;;;;;5055372;28;20052;-82
2023/05/15 04:22:50;;;;;;;7.97;3.15;;;;;;;;;;5055580;28;20033;-81
2023/05/15 04:25:16;;;;;;;5.38;3.45;;;;;;;;;;5055363;28;20033;-82
2023/05/15 04:27:43;;;;;;;7.97;3.42;;;;;;;;;;5055520;28;20082;-83
2023/05/15 04:30:09;;;;;;;5.70;3.20;;;;;;;;;;5054595;28;20067;-83
2023/05/15 04:32:34;;;;;;;5.03;3.42;;;;;;;;;;5054924;28;20035;-84
2023/05/15 04:35:10;;;;;;;6.82;3.17;;;;;;;;;;5054804;28;20024;-85
2023/05/15 04:37:36;;;;;;;6.15;3.60;;;;;;;;;;5055553;28;20024;-83
2023/05/15 04:40:02;;;;;;;8.88;4.30;;;;;;;;;;5054412;28;20471;-83
2023/05/15 04:42:28;;;;;;;5.03;3.60;;;;;;;;;;5038171;28;20036;-83
2023/05/15 04:44:53;;;;;;;9.50;4.10;;;;;;;;;;5037860;28;20036;-81
2023/05/15 04:47:19;;;;;;;36.10;10.43;;;;;;;;;;5038618;28;20089;-85
2023/05/15 04:49:46;;;;;;;16.45;6.22;;;;;;;;;;5038368;28;20029;-82
2023/05/15 04:52:12;;;;;;;16.65;6.00;;;;;;;;;;5054940;28;20035;-84
2023/05/15 04:54:38;;;;;;;18.60;6.97;;;;;;;;;;5054598;28;20021;-83
2023/05/15 04:57:03;;;;;;;21.67;6.82;;;;;;;;;;5054826;28;20694;-82
2023/05/15 04:59:29;;;;;;;18.90;6.90;;;;;;;;;;5072554;28;20146;-82
2023/05/15 05:01:55;;;;;;;21.65;6.97;;;;;;;;;;5055269;28;20391;-82
2023/05/15 05:04:20;;;;;;;17.35;6.57;;;;;;;;;;5055462;28;20028;-82
2023/05/15 05:06:46;;;;;;;16.63;5.88;;;;;;;;;;5054604;28;20056;-84
2023/05/15 05:09:11;;;;;;;18.23;5.95;;;;;;;;;;5055402;28;20024;-82
2023/05/15 05:11:42;;;;;;;15.25;5.50;;;;;;;;;;5072954;28;20048;-83
2023/05/15 05:14:07;;;;;;;20.30;6.65;;;;;;;;;;5055380;28;20050;-83
2023/05/15 05:16:32;;;;;;;18.35;5.93;;;;;;;;;;5073079;28;20161;-83
2023/05/15 05:18:58;;;;;;;13.75;6.03;;;;;;;;;;5051259;28;20063;-83
2023/05/15 05:21:23;;;;;;;11.65;5.13;;;;;;;;;;5052656;28;20045;-83
2023/05/15 05:23:49;;;;;;;9.63;4.90;;;;;;;;;;5031806;28;20439;-83
2023/05/15 05:26:14;;;;;;;10.30;4.75;;;;;;;;;;5053026;28;20056;-83
2023/05/15 05:28:40;;;;;;;12.48;4.65;;;;;;;;;;5051977;28;20052;-83
2023/05/15 05:31:06;;;;;;;10.63;5.18;;;;;;;;;;5036398;28;20084;-84
2023/05/15 05:33:31;;;;;;;10.90;4.50;;;;;;;;;;5051693;28;20036;-83
2023/05/15 05:35:56;;;;;;;11.40;4.25;;;;;;;;;;5051560;28;20033;-83
2023/05/15 05:38:22;;;;;;;13.45;4.40;;;;;;;;;;5051513;28;20084;-83
2023/05/15 05:40:47;;;;;;;10.85;4.65;;;;;;;;;;5051713;28;20538;-83
2023/05/15 05:43:13;;;;;;;10.73;4.38;;;;;;;;;;5037398;28;20032;-82
2023/05/15 05:45:38;;;;;;;8.23;3.60;;;;;;;;;;5056294;28;20082;-83
2023/05/15 05:48:04;;;;;;;6.68;3.50;;;;;;;;;;5021820;28;20029;-82
2023/05/15 05:50:29;;;;;;;9.00;4.10;;;;;;;;;;5018272;28;20040;-82
2023/05/15 05:52:55;;;;;;;5.93;3.63;;;;;;;;;;5051202;28;20037;-82
2023/05/15 05:55:20;;;;;;;10.50;4.10;;;;;;;;;;5037985;28;20129;-83
2023/05/15 05:57:46;;;;;;;6.68;3.65;;;;;;;;;;5018166;28;20033;-83
2023/05/15 06:00:11;;;;;;;7.55;3.38;;;;;;;;;;5053178;28;20095;-83
2023/05/15 06:02:37;;;;;;;6.78;3.67;;;;;;;;;;5034597;28;20049;-82
2023/05/15 06:05:03;;;;;;;7.53;3.50;;;;;;;;;;5035675;28;20040;-83
2023/05/15 06:07:29;;;;;;;4.95;3.45;;;;;;;;;;5055781;28;20112;-83
2023/05/15 06:09:55;;;;;;;6.05;3.50;;;;;;;;;;5034407;28;20448;-83
2023/05/15 06:12:20;;;;;;;8.02;3.00;;;;;;;;;;5054169;28;20052;-80
2023/05/15 06:14:46;;;;;;;4.88;3.17;;;;;;;;;;5034715;28;20057;-81
2023/05/15 06:17:11;;;;;;;4.43;3.17;;;;;;;;;;5053152;28;20045;-82
2023/05/15 06:19:37;;;;;;;7.00;3.20;;;;;;;;;;5026651;28;20056;-83
2023/05/15 06:22:02;;;;;;;3.50;2.70;;;;;;;;;;5055913;28;20028;-82
2023/05/15 06:24:28;;;;;;;4.88;3.13;;;;;;;;;;5058463;28;20095;-85
2023/05/15 06:26:53;;;;;;;7.88;3.20;;;;;;;;;;5057584;28;20032;-84
2023/05/15 06:29:18;;;;;;;3.47;2.75;;;;;;;;;;5057322;28;20500;-83
2023/05/15 06:31:44;;;;;;;9.88;3.03;;;;;;;;;;5075169;28;20039;-83
2023/05/15 06:34:09;;;;;;;13.95;3.13;;;;;;;;;;5057402;28;20111;-84
2023/05/15 06:36:36;;;;;;;9.25;2.70;;;;;;;;;;5057458;28;20518;-84
2023/05/15 06:39:01;;;;;;;7.15;3.03;;;;;;;;;;5056709;28;20035;-84
2023/05/15 06:41:27;;;;;;;11.48;2.45;;;;;;;;;;5073741;28;20013;-84
2023/05/15 06:43:53;;;;;;;4.68;2.38;;;;;;;;;;5074187;28;20043;-84
2023/05/15 06:46:19;;;;;;;5.82;2.63;;;;;;;;;;5057402;28;20074;-84
2023/05/15 06:48:46;;;;;;;6.25;3.00;;;;;;;;;;5056942;28;20032;-85
2023/05/15 06:51:11;;;;;;;3.70;2.10;;;;;;;;;;5057033;28;20132;-85
2023/05/15 06:53:37;;;;;;;3.65;2.10;;;;;;;;;;5056974;28;20073;-85
2023/05/15 06:56:02;;;;;;;3.60;2.28;;;;;;;;;;5073532;28;20395;-84
2023/05/15 06:58:28;;;;;;;6.32;2.30;;;;;;;;;;5073964;28;20077;-84
2023/05/15 07:00:53;;;;;;;4.25;2.22;;;;;;;;;;5040442;28;20032;-85
2023/05/15 07:03:18;;;;;;;3.55;2.13;;;;;;;;;;5073747;28;20108;-85
2023/05/15 07:05:44;;;;;;;3.70;2.10;;;;;;;;;;5056891;28;20043;-84
2023/05/15 07:08:10;;;;;;;5.32;2.30;;;;;;;;;;5074373;28;20033;-85
2023/05/15 07:10:35;;;;;;;5.07;2.28;;;;;;;;;;5074622;28;20036;-85
2023/05/15 07:13:01;;;;;;;6.53;2.10;;;;;;;;;;5056615;28;20415;-85
2023/05/15 07:15:26;;;;;;;3.53;2.50;;;;;;;;;;5057008;28;20497;-83
2023/05/15 07:17:52;;;;;;;6.88;2.15;;;;;;;;;;5074822;28;20044;-81
2023/05/15 07:20:17;;;;;;;4.53;2.25;;;;;;;;;;5057200;28;20052;-85
2023/05/15 07:22:42;;;;;;;4.18;2.20;;;;;;;;;;5056284;28;20036;-84
2023/05/15 07:25:08;;;;;;;4.00;2.15;;;;;;;;;;5074295;28;20537;-82
2023/05/15 07:27:34;;;;;;;7.93;2.33;;;;;;;;;;5072927;28;20062;-86
2023/05/15 07:30:01;;;;;;;6.60;2.50;;;;;;;;;;5056989;28;20029;-84
2023/05/15 07:32:26;;;;;;;21.52;2.80;;;;;;;;;;5073282;28;20103;-87
2023/05/15 07:34:52;;;;;;;3.63;2.33;;;;;;;;;;5056385;28;20112;-88
2023/05/15 07:37:18;;;;;;;5.28;3.00;;;;;;;;;;5056441;28;20368;-86
2023/05/15 07:39:43;;;;;;;3.72;2.92;;;;;;;;;;5056664;28;20033;-86
2023/05/15 07:42:08;;;;;;;5.55;3.70;;;;;;;;;;5057545;28;20047;-87
2023/05/15 07:44:34;;;;;;;3.80;3.20;;;;;;;;;;5074069;28;20033;-86
2023/05/15 07:46:59;;;;;;;5.43;3.33;;;;;;;;;;5056486;28;20047;-85
2023/05/15 07:49:25;;;;;;;6.88;3.53;;;;;;;;;;5055917;28;20032;-84
2023/05/15 07:51:51;;;;;;;4.45;3.10;;;;;;;;;;5056024;28;20174;-86
2023/05/15 07:54:17;;;;;;;4.97;3.25;;;;;;;;;;5072952;28;20032;-85
2023/05/15 07:56:42;;;;;;;4.43;3.20;;;;;;;;;;5056576;28;20031;-85
2023/05/15 07:59:08;;;;;;;3.90;3.13;;;;;;;;;;5074142;28;20065;-85
2023/05/15 08:01:33;;;;;;;6.32;3.50;;;;;;;;;;5072922;28;20025;-84
2023/05/15 08:03:59;;;;;;;10.27;3.00;;;;;;;;;;5055886;28;20056;-84
2023/05/15 08:06:25;;;;;;;4.10;3.00;;;;;;;;;;5055815;28;20044;-84
2023/05/15 08:08:50;;;;;;;3.70;2.65;;;;;;;;;;5055770;28;20039;-84
2023/05/15 08:11:17;;;;;;;3.65;2.50;;;;;;;;;;5073963;28;20636;-84
2023/05/15 08:13:43;;;;;;;3.00;2.47;;;;;;;;;;5072643;28;20020;-84
2023/05/15 08:16:09;;;;;;;3.70;2.80;;;;;;;;;;5074057;28;20035;-85
2023/05/15 08:18:34;;;;;;;4.50;2.70;;;;;;;;;;5055687;28;20395;-85
2023/05/15 08:21:00;;;;;;;3.38;2.38;;;;;;;;;;5055947;28;20104;-84
2023/05/15 08:23:25;;;;;;;3.95;2.47;;;;;;;;;;5073834;28;20447;-84
2023/05/15 08:25:51;;;;;;;3.65;2.60;;;;;;;;;;5039108;28;20036;-84
2023/05/15 08:28:16;;;;;;;3.90;2.75;;;;;;;;;;5055863;28;20032;-85
2023/05/15 08:30:42;;;;;;;2.92;2.25;;;;;;;;;;5055611;28;20399;-85
2023/05/15 08:33:07;;;;;;;3.22;2.50;;;;;;;;;;5056287;28;20032;-84
2023/05/15 08:35:32;;;;;;;3.75;2.50;;;;;;;;;;5055551;28;20028;-84
2023/05/15 08:37:58;;;;;;;3.63;2.50;;;;;;;;;;5055215;28;20033;-84
2023/05/15 08:40:24;;;;;;;2.83;2.38;;;;;;;;;;5055987;28;20102;-85
2023/05/15 08:42:53;;;;;;;4.50;2.50;;;;;;;;;;5055913;28;20108;-84
2023/05/15 08:45:19;;;;;;;3.85;2.40;;;;;;;;;;5056264;28;20028;-84
2023/05/15 08:47:44;;;;;;;2.67;2.22;;;;;;;;;;5074047;28;20356;-84
2023/05/15 08:50:15;;;;;;;4.10;2.22;;;;;;;;;;5056210;28;20119;-84
2023/05/15 08:52:48;;;;;;;3.13;2.08;;;;;;;;;;5055833;28;20079;-86
2023/05/15 08:55:14;;;;;;;3.72;2.38;;;;;;;;;;5057072;28;20095;-86
2023/05/15 08:57:40;;;;;;;8.00;2.28;;;;;;;;;;5061622;28;20029;-86
2023/05/15 09:00:08;;;;;;;3.00;2.65;;;;;;;;;;5069586;28;20020;-86
2023/05/15 09:02:40;;;;;;;4.65;2.92;;;;;;;;;;5081861;28;20088;-85
2023/05/15 09:05:08;;;;;;;6.22;3.17;;;;;;;;;;5066465;28;20044;-86
2023/05/15 09:07:34;;;;;;;5.07;3.60;;;;;;;;;;5074735;28;20021;-88
2023/05/15 09:10:01;;;;;;;6.00;3.60;;;;;;;;;;5046888;28;20035;-87
2023/05/15 09:12:27;;;;;;;5.60;3.30;;;;;;;;;;5063209;28;20028;-86
2023/05/15 09:15:11;;;;;;;10.23;3.50;;;;;;;;;;5070027;28;20125;-84
2023/05/15 09:17:37;;;;;;;5.43;3.13;;;;;;;;;;5063423;28;20450;-86
2023/05/15 09:20:04;;;;;;;10.90;3.83;;;;;;;;;;5062563;28;20162;-86
2023/05/15 09:22:33;;;;;;;5.43;3.03;;;;;;;;;;5054495;28;20059;-86
2023/05/15 09:24:58;;;;;;;4.55;2.83;;;;;;;;;;5070828;28;20038;-85
2023/05/15 09:27:24;;;;;;;3.15;2.38;;;;;;;;;;5063528;28;20100;-85
2023/05/15 09:29:53;;;;;;;6.72;2.80;;;;;;;;;;5048854;28;20029;-85
2023/05/15 09:32:19;;;;;;;6.80;2.80;;;;;;;;;;5065180;28;20025;-85
2023/05/15 09:34:45;;;;;;;8.73;3.00;;;;;;;;;;5063174;28;20047;-84
2023/05/15 09:37:28;;;;;;;5.68;2.63;;;;;;;;;;5045890;28;20024;-84
2023/05/15 09:39:55;;;;;;;3.40;2.70;;;;;;;;;;5061555;28;20032;-84
2023/05/15 09:42:23;;;;;;;4.53;2.60;;;;;;;;;;5060862;28;20025;-84
2023/05/15 09:44:49;;;;;;;7.82;2.88;;;;;;;;;;5044890;28;20056;-84
2023/05/15 09:47:17;;;;;;;5.15;2.60;;;;;;;;;;5059924;28;20044;-85
2023/05/15 09:49:43;;;;;;;5.18;2.63;;;;;;;;;;5079934;28;20100;-84
2023/05/15 09:52:09;;;;;;;7.28;2.50;;;;;;;;;;5080584;28;20046;-85
2023/05/15 09:54:35;;;;;;;3.85;2.50;;;;;;;;;;5059472;28;20383;-84
2023/05/15 09:57:12;;;;;;;3.20;2.35;;;;;;;;;;5059631;28;20483;-84
2023/05/15 09:59:46;;;;;;;3.33;2.13;;;;;;;;;;5059090;28;20025;-84
2023/05/15 10:02:31;;;;;;;4.13;2.78;;;;;;;;;;5058668;28;20025;-84
2023/05/15 10:04:57;;;;;;;4.63;2.50;;;;;;;;;;5042557;28;20099;-85
2023/05/15 10:07:30;;;;;;;3.95;2.63;;;;;;;;;;5058445;28;20034;-85
2023/05/15 10:09:55;;;;;;;5.38;2.45;;;;;;;;;;5042428;28;20024;-84
2023/05/15 10:12:22;;;;;;;8.52;3.25;;;;;;;;;;5056907;28;20078;-84
2023/05/15 10:14:48;;;;;;;14.50;2.97;;;;;;;;;;5058828;28;20017;-84
2023/05/15 10:17:13;;;;;;;4.43;2.60;;;;;;;;;;5061567;28;20031;-84
2023/05/15 10:19:39;;;;;;;3.95;2.83;;;;;;;;;;5059403;28;20052;-84
2023/05/15 10:22:06;;;;;;;7.20;2.90;;;;;;;;;;5064040;28;20109;-84
2023/05/15 10:24:32;;;;;;;4.78;2.85;;;;;;;;;;5086572;28;20040;-83
2023/05/15 10:26:58;;;;;;;7.25;3.00;;;;;;;;;;5050172;28;20021;-84
2023/05/15 10:29:25;;;;;;;3.38;2.60;;;;;;;;;;5061632;28;20035;-84
2023/05/15 10:31:51;;;;;;;3.80;2.58;;;;;;;;;;5060553;28;20043;-84
2023/05/15 10:34:17;;;;;;;5.18;2.90;;;;;;;;;;5062801;28;20539;-83
2023/05/15 10:36:43;;;;;;;5.85;2.85;;;;;;;;;;5058316;28;20039;-83
2023/05/15 10:39:09;;;;;;;6.47;2.65;;;;;;;;;;5058422;28;20399;-84
2023/05/15 10:41:35;;;;;;;4.63;2.60;;;;;;;;;;5042230;28;20039;-84
2023/05/15 10:44:01;;;;;;;3.15;2.80;;;;;;;;;;5057966;28;20098;-83
2023/05/15 10:46:28;;;;;;;7.43;3.13;;;;;;;;;;5057365;28;20466;-84
2023/05/15 10:48:53;;;;;;;5.10;3.00;;;;;;;;;;5057048;28;20035;-84
2023/05/15 10:51:35;;;;;;;2.97;2.70;;;;;;;;;;5040406;28;20107;-84
2023/05/15 10:54:03;;;;;;;5.20;3.28;;;;;;;;;;5058002;28;20078;-84
2023/05/15 10:56:30;;;;;;;4.07;3.10;;;;;;;;;;5040880;28;20074;-84
2023/05/15 10:58:55;;;;;;;4.15;3.17;;;;;;;;;;5040652;28;20558;-85
2023/05/15 11:01:30;;;;;;;4.03;3.17;;;;;;;;;;5057692;28;20029;-84
2023/05/15 11:04:14;;;;;;;4.82;3.45;;;;;;;;;;5057532;28;20036;-86
2023/05/15 11:06:48;;;;;;;5.60;3.35;;;;;;;;;;5040366;28;20055;-84
2023/05/15 11:09:26;;;;;;;6.10;3.63;;;;;;;;;;5075283;28;20025;-84
2023/05/15 11:11:51;;;;;;;8.07;3.72;;;;;;;;;;5074666;28;20082;-84
2023/05/15 11:14:28;;;;;;;6.93;3.90;;;;;;;;;;5076082;28;20422;-85
2023/05/15 11:16:53;;;;;;;6.68;4.13;;;;;;;;;;5058339;28;20028;-83
2023/05/15 11:19:28;;;;;;;8.55;4.18;;;;;;;;;;5074722;28;20153;-84
2023/05/15 11:22:27;;;;;;;6.75;4.30;;;;;;;;;;5056570;28;20069;-83
2023/05/15 11:25:03;;;;;;;5.80;4.30;;;;;;;;;;5041927;28;20038;-84
2023/05/15 11:27:31;;;;;;;6.90;4.40;;;;;;;;;;5057871;28;20444;-84
2023/05/15 11:30:03;;;;;;;14.43;4.57;;;;;;;;;;5058642;28;20028;-84
2023/05/15 11:32:50;;;;;;;8.32;4.45;;;;;;;;;;5075317;28;20052;-84
2023/05/15 11:35:31;;;;;;;7.13;4.13;;;;;;;;;;5058622;28;20471;-84
2023/05/15 11:38:09;;;;;;;6.20;3.95;;;;;;;;;;5056352;28;20119;-84
2023/05/15 11:40:57;;;;;;;7.75;4.45;;;;;;;;;;5074229;28;20490;-84
2023/05/15 11:43:34;;;;;;;7.78;4.63;;;;;;;;;;5074899;28;20024;-84
2023/05/15 11:46:06;;;;;;;7.78;4.60;;;;;;;;;;5039924;28;20050;-84
2023/05/15 11:48:42;;;;;;;8.10;5.30;;;;;;;;;;5056300;28;20491;-84
2023/05/15 11:51:21;;;;;;;7.18;5.05;;;;;;;;;;5057991;28;20021;-84
2023/05/15 11:53:51;;;;;;;7.80;4.88;;;;;;;;;;5055829;28;20021;-84
2023/05/15 11:56:24;;;;;;;6.28;4.50;;;;;;;;;;5057143;28;20032;-84
2023/05/15 11:58:53;;;;;;;6.97;4.47;;;;;;;;;;5058409;28;20020;-83
2023/05/15 12:01:18;;;;;;;8.20;5.10;;;;;;;;;;5040189;28;20028;-84
2023/05/15 12:03:46;;;;;;;9.43;4.60;;;;;;;;;;5073769;28;20035;-83
2023/05/15 12:06:11;;;;;;;7.63;4.60;;;;;;;;;;5056446;28;20029;-84
2023/05/15 12:08:37;;;;;;;7.22;4.75;;;;;;;;;;5039239;28;20051;-83
2023/05/15 12:11:03;;;;;;;7.03;5.00;;;;;;;;;;5039697;28;20073;-83
2023/05/15 12:13:30;;;;;;;7.40;4.85;;;;;;;;;;5039235;28;20028;-83
2023/05/15 12:15:56;;;;;;;7.75;5.32;;;;;;;;;;5038856;28;20024;-84
2023/05/15 12:18:22;;;;;;;7.82;5.07;;;;;;;;;;5055623;28;20391;-84
2023/05/15 12:20:50;;;;;;;9.68;4.95;;;;;;;;;;5047985;28;20506;-84
2023/05/15 12:23:16;;;;;;;6.90;5.00;;;;;;;;;;5060235;28;20114;-84
2023/05/15 12:25:43;;;;;;;8.73;5.35;;;;;;;;;;5080495;28;20032;-83
2023/05/15 12:28:10;;;;;;;9.20;5.25;;;;;;;;;;5078670;28;20036;-83
2023/05/15 12:30:36;;;;;;;8.13;5.00;;;;;;;;;;5077417;28;20077;-84
2023/05/15 12:33:06;;;;;;;7.32;5.20;;;;;;;;;;5081409;28;20019;-83
2023/05/15 12:35:35;;;;;;;7.80;4.80;;;;;;;;;;5076884;28;20067;-84
2023/05/15 12:38:04;;;;;;;7.22;5.30;;;;;;;;;;5063127;28;20032;-83
2023/05/15 12:40:34;;;;;;;6.97;5.10;;;;;;;;;;5062809;28;20429;-83
2023/05/15 12:43:04;;;;;;;9.15;5.22;;;;;;;;;;5077526;28;20381;-84
2023/05/15 12:45:32;;;;;;;7.57;5.25;;;;;;;;;;5062027;28;20029;-83
2023/05/15 12:47:57;;;;;;;7.65;5.35;;;;;;;;;;5062086;28;20028;-83
2023/05/15 12:50:22;;;;;;;7.88;5.30;;;;;;;;;;5068996;28;20110;-84
2023/05/15 12:52:53;;;;;;;7.07;5.40;;;;;;;;;;5097738;28;20028;-83
2023/05/15 12:55:24;;;;;;;6.32;4.90;;;;;;;;;;5077796;28;20341;-83
2023/05/15 12:57:50;;;;;;;11.38;5.65;;;;;;;;;;5059459;28;20097;-84
2023/05/15 13:00:16;;;;;;;7.88;5.25;;;;;;;;;;5075811;28;20027;-83
2023/05/15 13:02:45;;;;;;;9.40;4.97;;;;;;;;;;5058914;28;20024;-84
2023/05/15 13:05:10;;;;;;;6.85;4.85;;;;;;;;;;5075106;28;20108;-84
2023/05/15 13:07:39;;;;;;;6.18;4.90;;;;;;;;;;5060315;28;20052;-83
2023/05/15 13:10:06;;;;;;;7.93;5.00;;;;;;;;;;5077686;28;20467;-84
2023/05/15 13:12:41;;;;;;;7.22;4.95;;;;;;;;;;5060793;28;20056;-84
2023/05/15 13:15:07;;;;;;;6.10;4.57;;;;;;;;;;5059591;28;20119;-84
2023/05/15 13:17:38;;;;;;;9.38;4.80;;;;;;;;;;5082806;28;20449;-84
2023/05/15 13:20:05;;;;;;;7.65;5.25;;;;;;;;;;5066193;28;20071;-84
2023/05/15 13:22:31;;;;;;;7.20;5.13;;;;;;;;;;5097986;28;20111;-84
2023/05/15 13:24:57;;;;;;;6.35;5.13;;;;;;;;;;5078879;28;20481;-84
2023/05/15 13:27:23;;;;;;;7.43;5.25;;;;;;;;;;5078014;28;20047;-85
2023/05/15 13:29:48;;;;;;;7.60;4.95;;;;;;;;;;5061854;28;20027;-85
2023/05/15 13:32:13;;;;;;;7.55;5.45;;;;;;;;;;5078449;28;20102;-84
2023/05/15 13:34:39;;;;;;;7.78;5.63;;;;;;;;;;5079216;28;20032;-84
2023/05/15 13:37:04;;;;;;;12.30;5.72;;;;;;;;;;5062610;28;20432;-85
2023/05/15 13:39:30;;;;;;;7.38;5.80;;;;;;;;;;5078123;28;20020;-85
2023/05/15 13:41:55;;;;;;;8.70;6.13;;;;;;;;;;5077537;28;20394;-85
2023/05/15 13:44:21;;;;;;;5.47;4.93;;;;;;;;;;5044647;28;20058;-85
2023/05/15 13:46:46;;;;;;;5.68;4.82;;;;;;;;;;5096013;28;20081;-84
2023/05/15 13:49:11;;;;;;;7.15;5.10;;;;;;;;;;5096004;28;20028;-84
2023/05/15 13:51:37;;;;;;;5.30;4.30;;;;;;;;;;5078035;28;20475;-85
2023/05/15 13:54:02;;;;;;;7.18;3.92;;;;;;;;;;5062435;28;20040;-84
2023/05/15 13:56:28;;;;;;;5.40;3.92;;;;;;;;;;5061185;28;20036;-85
2023/05/15 13:58:53;;;;;;;6.88;3.78;;;;;;;;;;5074090;28;20111;-84
2023/05/15 14:01:19;;;;;;;3.50;3.20;;;;;;;;;;5075588;28;20440;-85
2023/05/15 14:03:44;;;;;;;3.75;3.42;;;;;;;;;;5073939;28;20038;-84
2023/05/15 14:06:10;;;;;;;5.30;2.97;;;;;;;;;;5040771;28;20032;-85
2023/05/15 14:08:35;;;;;;;3.05;2.75;;;;;;;;;;5077816;28;20051;-86
2023/05/15 14:11:01;;;;;;;4.55;2.70;;;;;;;;;;5063084;28;20035;-85
2023/05/15 14:13:27;;;;;;;5.72;2.35;;;;;;;;;;5077345;28;20028;-85
2023/05/15 14:15:54;;;;;;;7.68;2.72;;;;;;;;;;5077373;28;20028;-85
2023/05/15 14:18:19;;;;;;;3.83;2.67;;;;;;;;;;5095428;28;20524;-85
2023/05/15 14:20:45;;;;;;;3.65;2.40;;;;;;;;;;5076942;28;20056;-86
2023/05/15 14:23:10;;;;;;;7.05;2.38;;;;;;;;;;5041235;28;20028;-86
2023/05/15 14:25:36;;;;;;;4.80;2.47;;;;;;;;;;5057699;28;20025;-87
2023/05/15 14:28:01;;;;;;;5.43;3.00;;;;;;;;;;5061695;28;20382;-86
2023/05/15 14:30:26;;;;;;;3.90;2.72;;;;;;;;;;5077467;28;20028;-86
2023/05/15 14:32:52;;;;;;;6.13;2.95;;;;;;;;;;5077687;28;20032;-86
2023/05/15 14:35:17;;;;;;;3.35;2.60;;;;;;;;;;5077237;28;20060;-86
2023/05/15 14:37:42;;;;;;;3.00;2.70;;;;;;;;;;5095220;28;20060;-86
2023/05/15 14:40:08;;;;;;;3.88;2.58;;;;;;;;;;5043849;28;20430;-86
2023/05/15 14:42:34;;;;;;;3.97;3.10;;;;;;;;;;5060722;28;20028;-86